Time;durP1;ratioP1;P1;durP2;ratioP2;P2;SDS_P1;SDS_P2;PMS_P1;PMS_P2;Temp;Humidity;BMP_temperature;BMP_pressure;BME280_temperature;BME280_humidity;BME280_pressure;Samples;Min_cycle;Max_cycle;Signal;HPM_P1;HPM_P2
2023/01/23 00:01:18;;;;;;;10.73;4.72;;;2.80;99.90;;;;;;5011098;28;20450;-75
2023/01/23 00:03:44;;;;;;;13.98;5.20;;;2.60;99.90;;;;;;5007965;28;20431;-75
2023/01/23 00:06:12;;;;;;;10.32;4.82;;;2.70;99.90;;;;;;5026611;28;20786;-75
2023/01/23 00:08:38;;;;;;;11.45;5.07;;;2.60;99.90;;;;;;5027657;28;20430;-75
2023/01/23 00:11:10;;;;;;;8.93;4.97;;;2.70;99.90;;;;;;5006871;28;20434;-76
2023/01/23 00:13:36;;;;;;;10.60;5.13;;;2.90;99.90;;;;;;5025913;28;20423;-76
2023/01/23 00:16:15;;;;;;;10.73;5.50;;;2.60;99.90;;;;;;4992254;28;20889;-75
2023/01/23 00:18:41;;;;;;;12.15;5.40;;;3.10;99.90;;;;;;5007946;28;20466;-75
2023/01/23 00:21:09;;;;;;;9.02;4.88;;;2.80;99.90;;;;;;5010346;28;20542;-75
2023/01/23 00:23:35;;;;;;;12.43;5.75;;;3.00;99.90;;;;;;5005772;28;20973;-76
2023/01/23 00:26:06;;;;;;;13.63;5.82;;;3.00;99.90;;;;;;5006482;28;20435;-76
2023/01/23 00:28:31;;;;;;;10.50;4.70;;;2.90;99.90;;;;;;5007735;28;20574;-76
2023/01/23 00:31:11;;;;;;;13.57;6.93;;;2.60;99.90;;;;;;5026329;28;20443;-75
2023/01/23 00:33:36;;;;;;;9.85;5.40;;;3.10;99.90;;;;;;5015750;28;20474;-76
2023/01/23 00:36:02;;;;;;;10.93;5.40;;;2.90;99.90;;;;;;5027062;28;20866;-75
2023/01/23 00:38:28;;;;;;;11.97;6.43;;;2.90;99.90;;;;;;5009104;28;20422;-76
2023/01/23 00:40:55;;;;;;;9.80;5.57;;;3.60;99.90;;;;;;5026561;28;20509;-76
2023/01/23 00:43:22;;;;;;;12.80;5.97;;;2.70;99.90;;;;;;5026869;28;20460;-74
2023/01/23 00:45:48;;;;;;;11.77;6.50;;;4.40;99.90;;;;;;5007138;28;20866;-75
2023/01/23 00:48:14;;;;;;;10.73;5.20;;;2.80;99.90;;;;;;5026833;28;20427;-75
2023/01/23 00:50:39;;;;;;;12.10;6.05;;;3.10;99.90;;;;;;5026735;28;20470;-75
2023/01/23 00:53:05;;;;;;;12.45;4.75;;;2.60;99.90;;;;;;5027020;28;20435;-76
2023/01/23 00:55:31;;;;;;;11.27;5.03;;;3.00;99.90;;;;;;5009451;28;20419;-76
2023/01/23 00:57:57;;;;;;;13.57;6.30;;;2.70;99.90;;;;;;5027114;28;20423;-76
2023/01/23 01:00:22;;;;;;;10.20;6.40;;;3.00;99.90;;;;;;5026430;28;20444;-76
2023/01/23 01:02:48;;;;;;;12.00;5.40;;;2.80;99.90;;;;;;5025937;28;20431;-76
2023/01/23 01:05:16;;;;;;;15.55;6.35;;;4.10;99.90;;;;;;4986200;28;20444;-75
2023/01/23 01:07:43;;;;;;;11.10;5.22;;;3.10;99.90;;;;;;5007126;28;20446;-76
2023/01/23 01:10:10;;;;;;;10.60;4.80;;;2.60;99.90;;;;;;5009182;28;20963;-76
2023/01/23 01:12:36;;;;;;;12.48;5.32;;;2.70;99.90;;;;;;5007664;28;20430;-76
2023/01/23 01:15:03;;;;;;;12.93;5.65;;;3.80;99.90;;;;;;5026336;28;20501;-75
2023/01/23 01:17:29;;;;;;;13.80;6.47;;;3.10;99.90;;;;;;5007113;28;20450;-76
2023/01/23 01:19:55;;;;;;;10.83;5.67;;;3.00;99.90;;;;;;5022812;28;20941;-75
2023/01/23 01:22:20;;;;;;;16.73;6.10;;;2.70;99.90;;;;;;4992645;28;20485;-75
2023/01/23 01:24:46;;;;;;;10.93;5.60;;;3.10;99.90;;;;;;5007283;28;20506;-75
2023/01/23 01:27:11;;;;;;;11.93;6.47;;;3.10;99.90;;;;;;5025267;28;20423;-76
2023/01/23 01:29:37;;;;;;;10.17;6.20;;;3.00;99.90;;;;;;4985923;28;20418;-76
2023/01/23 01:32:03;;;;;;;10.27;5.23;;;2.90;99.90;;;;;;5008223;28;20447;-74
2023/01/23 01:34:29;;;;;;;12.65;6.40;;;3.00;99.90;;;;;;5015732;28;20491;-74
2023/01/23 01:36:55;;;;;;;14.02;6.40;;;2.60;99.90;;;;;;5008455;28;20431;-74
2023/01/23 01:39:21;;;;;;;15.63;6.23;;;3.60;99.90;;;;;;5025426;28;20600;-75
2023/01/23 01:41:46;;;;;;;12.43;6.27;;;3.00;99.90;;;;;;5009527;28;20471;-75
2023/01/23 01:44:23;;;;;;;9.93;5.30;;;3.00;99.90;;;;;;5009294;28;20423;-75
2023/01/23 01:46:49;;;;;;;10.98;6.60;;;3.00;99.90;;;;;;5020207;28;20430;-75
2023/01/23 01:49:23;;;;;;;9.73;5.97;;;3.50;99.90;;;;;;5026129;28;20897;-75
2023/01/23 01:52:17;;;;;;;13.13;6.72;;;3.00;99.90;;;;;;5026711;28;20434;-75
2023/01/23 01:54:46;;;;;;;13.43;5.63;;;2.70;99.90;;;;;;5010935;28;20975;-75
2023/01/23 01:57:29;;;;;;;11.20;5.78;;;2.90;99.90;;;;;;5024774;28;20816;-76
2023/01/23 02:00:16;;;;;;;15.10;7.20;;;2.60;99.90;;;;;;5019800;28;20460;-76
2023/01/23 02:02:47;;;;;;;14.65;5.93;;;2.70;99.90;;;;;;5003771;28;20458;-75
2023/01/23 02:05:16;;;;;;;11.90;6.35;;;3.00;99.90;;;;;;5024809;28;20423;-75
2023/01/23 02:08:28;;;;;;;9.68;6.60;;;2.70;99.90;;;;;;5024983;28;20421;-75
2023/01/23 02:10:54;;;;;;;15.50;7.10;;;3.10;99.90;;;;;;4997635;28;20431;-75
2023/01/23 02:13:35;;;;;;;11.53;5.87;;;2.70;99.90;;;;;;5005475;28;20513;-75
2023/01/23 02:16:07;;;;;;;11.98;6.10;;;4.50;99.90;;;;;;5026807;28;20529;-75
2023/01/23 02:18:37;;;;;;;12.20;5.82;;;3.10;99.90;;;;;;5022536;28;20801;-75
2023/01/23 02:21:06;;;;;;;9.63;5.90;;;2.90;99.90;;;;;;5008292;28;20480;-75
2023/01/23 02:23:52;;;;;;;14.02;6.28;;;3.10;99.90;;;;;;5024803;28;20459;-76
2023/01/23 02:26:26;;;;;;;10.43;6.60;;;3.00;99.90;;;;;;5020877;28;20415;-76
2023/01/23 02:28:52;;;;;;;16.20;8.10;;;5.30;99.90;;;;;;5004539;28;20442;-76
2023/01/23 02:31:18;;;;;;;13.38;7.18;;;2.70;99.90;;;;;;5022616;28;20445;-76
2023/01/23 02:33:48;;;;;;;11.70;6.90;;;3.00;99.90;;;;;;5004516;28;20443;-76
2023/01/23 02:36:16;;;;;;;16.33;6.50;;;4.30;99.90;;;;;;5023641;28;20435;-76
2023/01/23 02:39:03;;;;;;;11.98;6.47;;;4.40;99.90;;;;;;5010095;28;20433;-76
2023/01/23 02:41:39;;;;;;;8.45;5.93;;;2.60;99.90;;;;;;5019401;28;20936;-76
2023/01/23 02:44:11;;;;;;;12.43;6.85;;;2.90;99.90;;;;;;5005358;28;20431;-77
2023/01/23 02:46:36;;;;;;;12.00;7.00;;;4.10;99.90;;;;;;5007992;28;20782;-75
2023/01/23 02:49:02;;;;;;;11.50;6.67;;;2.60;99.90;;;;;;5004781;28;20430;-75
2023/01/23 02:51:28;;;;;;;11.57;5.70;;;2.70;99.90;;;;;;5024696;28;20431;-75
2023/01/23 02:53:54;;;;;;;11.18;6.07;;;2.60;99.90;;;;;;5005031;28;20438;-76
2023/01/23 02:56:19;;;;;;;9.48;5.80;;;3.00;99.90;;;;;;5024877;28;21033;-75
2023/01/23 03:01:32;;;;;;;12.55;6.40;;;2.90;99.90;;;;;;5017861;28;20433;-76
2023/01/23 03:04:02;;;;;;;10.23;6.93;;;2.50;99.90;;;;;;5016950;28;20934;-75
2023/01/23 03:06:34;;;;;;;11.70;7.50;;;2.80;99.90;;;;;;5025985;28;20431;-75
2023/01/23 03:09:02;;;;;;;11.57;6.93;;;3.40;99.90;;;;;;5012873;28;20431;-75
2023/01/23 03:11:27;;;;;;;14.68;7.25;;;2.90;99.90;;;;;;5008949;28;20785;-76
2023/01/23 03:13:53;;;;;;;10.90;6.37;;;2.70;99.90;;;;;;5010525;28;20427;-76
2023/01/23 03:16:19;;;;;;;10.43;6.77;;;3.00;99.90;;;;;;5011540;28;20790;-75
2023/01/23 03:18:44;;;;;;;10.93;6.35;;;4.20;99.90;;;;;;5026911;28;20421;-75
2023/01/23 03:21:11;;;;;;;10.25;6.90;;;2.40;99.90;;;;;;5010690;28;20813;-75
2023/01/23 03:23:39;;;;;;;11.82;7.05;;;2.60;99.90;;;;;;5027780;28;20407;-76
2023/01/23 03:26:05;;;;;;;10.10;6.50;;;3.10;99.90;;;;;;5027596;28;20427;-76
2023/01/23 03:31:15;;;;;;;12.13;6.60;;;2.50;99.90;;;;;;5008013;28;20431;-76
2023/01/23 03:33:43;;;;;;;11.23;6.47;;;2.90;99.90;;;;;;5025550;28;20852;-76
2023/01/23 03:36:12;;;;;;;11.00;6.90;;;4.10;99.90;;;;;;5009320;28;20435;-76
2023/01/23 03:41:23;;;;;;;10.20;6.80;;;3.70;99.90;;;;;;5010297;28;20419;-75
2023/01/23 03:41:24;;;;;;;13.40;7.15;;;3.00;99.90;;;;;;5009470;28;20435;-76
2023/01/23 03:43:49;;;;;;;13.00;6.53;;;2.40;99.90;;;;;;5010123;28;20505;-76
2023/01/23 03:46:15;;;;;;;11.75;6.65;;;2.60;99.90;;;;;;5027291;28;20415;-75
2023/01/23 03:48:41;;;;;;;10.85;6.55;;;3.00;99.90;;;;;;5008857;28;20525;-76
2023/01/23 03:51:06;;;;;;;12.95;6.95;;;2.90;99.90;;;;;;4993243;28;20526;-76
2023/01/23 03:53:32;;;;;;;11.10;6.10;;;4.70;99.90;;;;;;5025198;28;20834;-75
2023/01/23 03:55:58;;;;;;;9.77;6.38;;;2.50;99.90;;;;;;5009268;28;20454;-76
2023/01/23 03:58:23;;;;;;;12.97;6.43;;;2.60;99.90;;;;;;5009614;28;20502;-75
2023/01/23 04:00:49;;;;;;;9.90;6.40;;;2.40;99.90;;;;;;5027744;28;20498;-75
2023/01/23 04:03:15;;;;;;;8.87;6.30;;;3.70;99.90;;;;;;5028652;28;20449;-76
2023/01/23 04:05:41;;;;;;;9.60;5.45;;;3.60;99.90;;;;;;5027334;28;20472;-76
2023/01/23 04:08:06;;;;;;;11.13;6.18;;;2.70;99.90;;;;;;5010219;28;20492;-76
2023/01/23 04:10:32;;;;;;;10.65;6.18;;;2.90;99.90;;;;;;5027646;28;20423;-76
2023/01/23 04:12:58;;;;;;;11.23;6.40;;;2.80;99.90;;;;;;5009879;28;20597;-75
2023/01/23 04:15:23;;;;;;;13.82;7.20;;;2.90;99.90;;;;;;5009606;28;20431;-75
2023/01/23 04:17:49;;;;;;;9.95;7.05;;;2.60;99.90;;;;;;5024725;28;20426;-75
2023/01/23 04:20:15;;;;;;;11.98;7.22;;;2.80;99.90;;;;;;5010464;28;20460;-75
2023/01/23 04:22:40;;;;;;;12.15;6.68;;;4.00;99.90;;;;;;5028250;28;20463;-76
2023/01/23 04:25:06;;;;;;;12.87;6.70;;;2.50;99.90;;;;;;5013677;28;20512;-76
2023/01/23 04:27:32;;;;;;;10.43;7.13;;;2.90;99.90;;;;;;5011199;28;20777;-75
2023/01/23 04:29:58;;;;;;;10.40;5.97;;;2.80;99.90;;;;;;5026848;28;20415;-76
2023/01/23 04:32:24;;;;;;;10.05;6.85;;;2.80;99.90;;;;;;5025265;28;20516;-76
2023/01/23 04:34:50;;;;;;;10.63;6.85;;;2.80;99.90;;;;;;5027692;28;20498;-75
2023/01/23 04:37:16;;;;;;;8.68;6.65;;;2.90;99.90;;;;;;5026824;28;20882;-75
2023/01/23 04:39:42;;;;;;;11.90;7.65;;;2.80;99.90;;;;;;5026596;28;20427;-75
2023/01/23 04:42:08;;;;;;;12.00;7.10;;;2.50;99.90;;;;;;5009363;28;20430;-76
2023/01/23 04:44:34;;;;;;;15.02;7.78;;;2.90;99.90;;;;;;5025936;28;20765;-77
2023/01/23 04:47:00;;;;;;;13.32;7.90;;;2.40;99.90;;;;;;5027002;28;21000;-76
2023/01/23 04:49:26;;;;;;;14.82;8.38;;;4.10;99.90;;;;;;5026633;28;20812;-76
2023/01/23 04:51:53;;;;;;;13.80;8.13;;;2.60;99.90;;;;;;5009396;28;20480;-75
2023/01/23 04:54:20;;;;;;;10.68;7.18;;;2.80;99.90;;;;;;5009586;28;20434;-75
2023/01/23 04:56:46;;;;;;;13.52;7.70;;;2.90;99.90;;;;;;5007104;28;20507;-76
2023/01/23 04:59:12;;;;;;;13.25;8.65;;;3.80;99.90;;;;;;5009913;28;20480;-76
2023/01/23 05:01:38;;;;;;;12.65;8.05;;;2.90;99.90;;;;;;5025393;28;20426;-75
2023/01/23 05:04:04;;;;;;;12.43;7.77;;;4.50;99.90;;;;;;5008767;28;20461;-76
2023/01/23 05:06:30;;;;;;;10.82;8.23;;;4.50;99.90;;;;;;5026088;28;20434;-75
2023/01/23 05:08:56;;;;;;;13.15;6.90;;;2.60;99.90;;;;;;5027568;28;20993;-75
2023/01/23 05:11:22;;;;;;;12.40;7.65;;;4.30;99.90;;;;;;5008679;28;20514;-75
2023/01/23 05:13:48;;;;;;;14.02;7.90;;;2.90;99.90;;;;;;5001090;28;20418;-74
2023/01/23 05:16:13;;;;;;;10.90;8.00;;;2.30;99.90;;;;;;5026760;28;20511;-75
2023/01/23 05:18:39;;;;;;;12.43;8.13;;;2.30;99.90;;;;;;5024747;28;20427;-75
2023/01/23 05:21:05;;;;;;;14.75;8.40;;;2.30;99.90;;;;;;5027272;28;20429;-76
2023/01/23 05:23:31;;;;;;;12.75;8.38;;;2.60;99.90;;;;;;5026643;28;20529;-75
2023/01/23 05:25:57;;;;;;;14.48;8.85;;;2.80;99.90;;;;;;5027497;28;20427;-75
2023/01/23 05:28:22;;;;;;;12.33;8.67;;;2.90;99.90;;;;;;5024655;28;20440;-75
2023/01/23 05:30:48;;;;;;;13.07;9.33;;;3.50;99.90;;;;;;5007538;28;20431;-75
2023/01/23 05:33:14;;;;;;;15.03;9.17;;;2.80;99.90;;;;;;5012313;28;20419;-75
2023/01/23 05:35:39;;;;;;;14.23;9.40;;;2.90;99.90;;;;;;5025318;28;20419;-75
2023/01/23 05:38:05;;;;;;;15.23;9.85;;;2.70;99.90;;;;;;5026720;28;20430;-74
2023/01/23 05:40:31;;;;;;;13.30;10.48;;;2.50;99.90;;;;;;5011622;28;20446;-75
2023/01/23 05:42:57;;;;;;;11.90;9.13;;;2.40;99.90;;;;;;5023227;28;20449;-76
2023/01/23 05:45:22;;;;;;;14.20;9.53;;;4.00;99.90;;;;;;5026617;28;20418;-74
2023/01/23 05:47:48;;;;;;;13.97;8.50;;;2.80;99.90;;;;;;4993513;28;20770;-76
2023/01/23 05:50:17;;;;;;;14.97;8.60;;;2.40;99.90;;;;;;5012143;28;20468;-76
2023/01/23 05:52:43;;;;;;;14.43;8.80;;;4.20;99.90;;;;;;5028452;28;20437;-75
2023/01/23 05:55:09;;;;;;;14.57;9.57;;;2.80;99.90;;;;;;5009618;28;20892;-76
2023/01/23 05:57:35;;;;;;;12.90;9.15;;;3.00;99.90;;;;;;5024161;28;20462;-77
2023/01/23 06:00:01;;;;;;;16.02;9.88;;;2.80;99.90;;;;;;5026532;28;20785;-74
2023/01/23 06:02:26;;;;;;;14.02;9.48;;;2.30;99.90;;;;;;5026898;28;20781;-75
2023/01/23 06:04:52;;;;;;;14.63;9.20;;;3.60;99.90;;;;;;5030570;28;20431;-74
2023/01/23 06:07:19;;;;;;;14.77;8.50;;;2.90;99.90;;;;;;5025981;28;20842;-75
2023/01/23 06:09:45;;;;;;;11.90;9.13;;;3.00;99.90;;;;;;5008607;28;20525;-75
2023/01/23 06:12:11;;;;;;;11.13;8.93;;;3.50;99.90;;;;;;5006774;28;20808;-75
2023/01/23 06:14:37;;;;;;;12.57;8.75;;;3.80;99.90;;;;;;5025510;28;20415;-74
2023/01/23 06:17:04;;;;;;;13.35;10.07;;;3.30;99.90;;;;;;5023922;28;20449;-74
2023/01/23 06:19:30;;;;;;;14.32;9.07;;;2.40;99.90;;;;;;5007600;28;20936;-75
2023/01/23 06:21:56;;;;;;;15.43;9.27;;;2.80;99.90;;;;;;5006426;28;20522;-75
2023/01/23 06:24:21;;;;;;;12.07;8.43;;;2.40;99.90;;;;;;5007340;28;20422;-75
2023/01/23 06:26:47;;;;;;;13.13;9.45;;;2.20;99.90;;;;;;5023987;28;20488;-75
2023/01/23 06:29:13;;;;;;;12.38;8.75;;;2.80;99.90;;;;;;5021182;28;20800;-76
2023/01/23 06:31:39;;;;;;;14.32;9.77;;;2.70;99.90;;;;;;5020952;28;20434;-75
2023/01/23 06:34:05;;;;;;;12.83;9.90;;;2.20;99.90;;;;;;5025682;28;20506;-76
2023/01/23 06:36:32;;;;;;;13.90;9.70;;;2.30;99.90;;;;;;5008334;28;20925;-76
2023/01/23 06:38:59;;;;;;;12.45;9.23;;;2.40;99.90;;;;;;5025139;28;21002;-75
2023/01/23 06:41:24;;;;;;;13.13;9.80;;;2.30;99.90;;;;;;5025958;28;20832;-75
2023/01/23 06:43:50;;;;;;;12.57;10.10;;;2.80;99.90;;;;;;5029214;28;20431;-75
2023/01/23 06:46:16;;;;;;;13.30;9.75;;;2.30;99.90;;;;;;5011841;28;20434;-75
2023/01/23 06:48:41;;;;;;;17.83;10.52;;;2.30;99.90;;;;;;5018739;28;20414;-75
2023/01/23 06:51:07;;;;;;;16.50;9.93;;;2.50;99.90;;;;;;5029492;28;20411;-76
2023/01/23 06:53:32;;;;;;;18.15;11.35;;;2.40;99.90;;;;;;4994541;28;20438;-75
2023/01/23 06:56:04;;;;;;;16.25;11.05;;;2.60;99.90;;;;;;5029784;28;20566;-75
2023/01/23 06:58:30;;;;;;;15.23;10.98;;;2.30;99.90;;;;;;5029513;28;20445;-75
2023/01/23 07:00:55;;;;;;;16.63;11.30;;;2.30;99.90;;;;;;5027398;28;21137;-75
2023/01/23 07:03:21;;;;;;;16.13;11.17;;;3.00;99.90;;;;;;5026162;28;20936;-75
2023/01/23 07:05:47;;;;;;;17.70;11.70;;;4.00;99.90;;;;;;5010678;28;20427;-75
2023/01/23 07:08:12;;;;;;;16.17;10.23;;;2.50;99.90;;;;;;5029156;28;20517;-75
2023/01/23 07:10:38;;;;;;;20.13;11.77;;;2.40;99.90;;;;;;5012148;28;20902;-75
2023/01/23 07:13:05;;;;;;;12.95;10.23;;;2.80;99.90;;;;;;5028489;28;20790;-76
2023/01/23 07:15:31;;;;;;;16.85;11.23;;;2.40;99.90;;;;;;5010635;28;20427;-76
2023/01/23 07:17:57;;;;;;;16.00;10.02;;;2.40;99.90;;;;;;5008488;28;20445;-76
2023/01/23 07:20:26;;;;;;;18.35;11.27;;;2.80;99.90;;;;;;5030342;28;20418;-76
2023/01/23 07:22:55;;;;;;;14.45;10.60;;;2.30;99.90;;;;;;5011873;28;20430;-76
2023/01/23 07:25:23;;;;;;;13.90;10.32;;;2.30;99.90;;;;;;5028290;28;20434;-75
2023/01/23 07:27:48;;;;;;;14.43;10.93;;;2.80;99.90;;;;;;5027913;28;20473;-76
2023/01/23 07:30:15;;;;;;;12.38;9.98;;;2.60;99.90;;;;;;5028190;28;20763;-75
2023/01/23 07:32:40;;;;;;;15.40;10.55;;;2.50;99.90;;;;;;5010366;28;20431;-75
2023/01/23 07:35:06;;;;;;;14.33;10.80;;;2.60;99.90;;;;;;5011449;28;20427;-75
2023/01/23 07:37:33;;;;;;;16.25;11.27;;;2.80;99.90;;;;;;4995613;28;20430;-75
2023/01/23 07:39:58;;;;;;;16.45;11.75;;;2.90;99.90;;;;;;5010682;28;20443;-74
2023/01/23 07:42:24;;;;;;;12.75;9.85;;;2.60;99.90;;;;;;4993056;28;20435;-76
2023/01/23 07:44:50;;;;;;;17.23;11.10;;;2.80;99.90;;;;;;5010029;28;20548;-75
2023/01/23 07:47:15;;;;;;;14.82;10.40;;;2.40;99.90;;;;;;5010334;28;20423;-75
2023/01/23 07:49:41;;;;;;;12.68;9.80;;;2.60;99.90;;;;;;5008957;28;20488;-76
2023/01/23 07:52:07;;;;;;;15.82;10.77;;;2.60;99.90;;;;;;5028261;28;20438;-76
2023/01/23 07:54:32;;;;;;;16.38;11.23;;;4.40;99.90;;;;;;5026567;28;20430;-75
2023/01/23 07:56:58;;;;;;;14.20;10.10;;;2.40;99.90;;;;;;5026892;28;20427;-75
2023/01/23 07:59:23;;;;;;;14.38;11.15;;;2.70;99.90;;;;;;5010192;28;20435;-75
2023/01/23 08:01:51;;;;;;;13.63;10.20;;;2.90;99.90;;;;;;4993574;28;20789;-75
2023/01/23 08:04:18;;;;;;;14.38;9.43;;;2.40;99.90;;;;;;5027529;28;20431;-75
2023/01/23 08:06:44;;;;;;;14.63;9.75;;;2.40;99.90;;;;;;5010046;28;20439;-75
2023/01/23 08:09:09;;;;;;;13.30;10.03;;;2.40;99.90;;;;;;5008627;28;20435;-75
2023/01/23 08:11:35;;;;;;;15.18;10.93;;;3.20;99.90;;;;;;4993999;28;20435;-75
2023/01/23 08:14:01;;;;;;;16.65;9.60;;;4.70;99.90;;;;;;5027139;28;20427;-75
2023/01/23 08:16:26;;;;;;;17.48;9.93;;;2.90;99.90;;;;;;5008991;28;20514;-76
2023/01/23 08:18:52;;;;;;;14.95;10.38;;;2.90;99.90;;;;;;5026857;28;20473;-75
2023/01/23 08:21:19;;;;;;;14.25;10.27;;;2.60;99.90;;;;;;5010714;28;20767;-75
2023/01/23 08:23:45;;;;;;;17.80;10.98;;;3.10;99.90;;;;;;5006412;28;20419;-75
2023/01/23 08:26:13;;;;;;;17.67;10.77;;;2.80;99.90;;;;;;5010681;28;20435;-74
2023/01/23 08:28:40;;;;;;;15.38;10.35;;;1.90;99.90;;;;;;5026405;28;20426;-74
2023/01/23 08:31:08;;;;;;;14.13;10.33;;;2.80;99.90;;;;;;5028832;28;20508;-74
2023/01/23 08:33:35;;;;;;;15.25;10.75;;;3.00;99.90;;;;;;5009166;28;20427;-75
2023/01/23 08:36:01;;;;;;;13.88;10.45;;;3.00;99.90;;;;;;5010390;28;20427;-74
2023/01/23 08:38:26;;;;;;;13.00;9.73;;;2.90;99.90;;;;;;5027926;28;20983;-75
2023/01/23 08:40:54;;;;;;;12.73;9.82;;;2.80;99.90;;;;;;5028717;28;20434;-74
2023/01/23 08:43:20;;;;;;;15.63;10.93;;;2.90;99.90;;;;;;5027242;28;20431;-74
2023/01/23 08:45:54;;;;;;;13.48;9.43;;;2.60;99.90;;;;;;5027634;28;20422;-74
2023/01/23 08:48:21;;;;;;;16.17;10.15;;;2.70;99.90;;;;;;5026893;28;20458;-74
2023/01/23 08:50:47;;;;;;;11.88;8.88;;;3.00;99.90;;;;;;5028074;28;20869;-74
2023/01/23 08:53:13;;;;;;;12.75;9.15;;;4.50;99.90;;;;;;5025930;28;20449;-73
2023/01/23 08:55:39;;;;;;;15.82;10.20;;;3.10;99.90;;;;;;5010906;28;20407;-75
2023/01/23 08:58:06;;;;;;;12.90;10.30;;;2.90;99.90;;;;;;5027316;28;20897;-74
2023/01/23 09:00:32;;;;;;;13.40;10.02;;;4.40;99.90;;;;;;5029064;28;20826;-75
2023/01/23 09:03:05;;;;;;;11.15;9.50;;;2.70;99.90;;;;;;5025845;28;20789;-74
2023/01/23 09:05:31;;;;;;;13.65;9.82;;;2.90;99.90;;;;;;5011129;28;20418;-78
2023/01/23 09:07:57;;;;;;;15.40;9.15;;;2.80;99.90;;;;;;5024878;28;20411;-75
2023/01/23 09:10:24;;;;;;;14.77;10.02;;;2.80;99.90;;;;;;5029075;28;21317;-76
2023/01/23 09:12:51;;;;;;;12.60;9.80;;;4.50;99.90;;;;;;5027760;28;20509;-76
2023/01/23 09:15:16;;;;;;;15.45;9.10;;;2.90;99.90;;;;;;5023452;28;20477;-76
2023/01/23 09:17:42;;;;;;;12.17;8.77;;;2.90;99.90;;;;;;5032767;28;20459;-76
2023/01/23 09:20:09;;;;;;;12.98;8.85;;;3.00;99.90;;;;;;5007338;28;20437;-76
2023/01/23 09:22:34;;;;;;;14.10;10.57;;;3.10;99.90;;;;;;5028404;28;20514;-75
2023/01/23 09:25:00;;;;;;;11.80;9.23;;;3.30;99.90;;;;;;5009691;28;20523;-75
2023/01/23 09:27:26;;;;;;;12.48;9.07;;;3.00;99.90;;;;;;5007222;28;20496;-74
2023/01/23 09:29:51;;;;;;;13.82;9.90;;;3.10;99.90;;;;;;5008450;28;20423;-75
2023/01/23 09:32:17;;;;;;;12.02;8.52;;;3.10;99.90;;;;;;5005259;28;20481;-75
2023/01/23 09:34:43;;;;;;;10.98;8.23;;;2.90;99.90;;;;;;5025651;28;20429;-74
2023/01/23 09:37:08;;;;;;;11.47;8.60;;;4.00;99.90;;;;;;5026715;28;20916;-75
2023/01/23 09:39:34;;;;;;;10.80;8.77;;;3.00;99.90;;;;;;5008170;28;20485;-74
2023/01/23 09:42:09;;;;;;;11.23;8.80;;;3.40;99.90;;;;;;5022696;28;20418;-74
2023/01/23 09:44:42;;;;;;;11.60;8.25;;;3.10;99.90;;;;;;5024424;28;20988;-74
2023/01/23 09:47:23;;;;;;;12.82;8.35;;;4.00;99.90;;;;;;5025123;28;20429;-74
2023/01/23 09:50:00;;;;;;;12.73;8.55;;;3.30;99.90;;;;;;5024409;28;20431;-76
2023/01/23 09:52:43;;;;;;;9.95;8.30;;;4.00;99.90;;;;;;5019389;28;20448;-76
2023/01/23 09:55:14;;;;;;;8.97;7.33;;;3.40;99.90;;;;;;5021393;28;20882;-75
2023/01/23 09:57:53;;;;;;;10.13;7.30;;;3.20;99.90;;;;;;4995101;28;20956;-73
2023/01/23 10:00:49;;;;;;;9.30;6.72;;;4.40;99.90;;;;;;5027717;28;20966;-74
2023/01/23 10:03:15;;;;;;;9.35;7.07;;;5.30;99.90;;;;;;5008719;28;20958;-75
2023/01/23 10:06:04;;;;;;;8.13;7.00;;;3.30;99.90;;;;;;5027703;28;20419;-75
2023/01/23 10:08:57;;;;;;;11.13;6.60;;;3.50;99.90;;;;;;4994455;28;20423;-75
2023/01/23 10:11:54;;;;;;;8.82;6.88;;;3.70;99.90;;;;;;5026979;28;20481;-75
2023/01/23 10:14:58;;;;;;;8.10;6.40;;;3.50;99.90;;;;;;5009774;28;20423;-75
2023/01/23 10:17:48;;;;;;;8.70;5.67;;;3.70;99.90;;;;;;5019072;28;20445;-75
2023/01/23 10:20:43;;;;;;;8.35;6.50;;;3.50;99.90;;;;;;5008761;28;20493;-75
2023/01/23 10:23:37;;;;;;;7.40;5.72;;;3.40;99.90;;;;;;5009552;28;20439;-74
2023/01/23 10:26:03;;;;;;;8.63;6.93;;;3.50;99.90;;;;;;5004642;28;20430;-74
2023/01/23 10:28:38;;;;;;;10.00;7.47;;;3.50;99.90;;;;;;5008954;28;20430;-75
2023/01/23 10:31:57;;;;;;;22.47;12.63;;;3.70;99.90;;;;;;5009074;28;20434;-76
2023/01/23 10:34:37;;;;;;;10.83;7.30;;;3.70;99.90;;;;;;4980668;28;20438;-75
2023/01/23 10:37:39;;;;;;;7.60;5.77;;;3.70;99.90;;;;;;5009136;28;20942;-75
2023/01/23 10:40:15;;;;;;;10.38;7.43;;;3.60;99.90;;;;;;4966414;28;21210;-75
2023/01/23 10:42:41;;;;;;;6.25;5.07;;;5.30;99.90;;;;;;5008202;28;20439;-73
2023/01/23 10:45:15;;;;;;;7.60;5.85;;;3.70;99.90;;;;;;4994945;28;20548;-73
2023/01/23 10:47:43;;;;;;;6.70;4.72;;;3.60;99.90;;;;;;5025308;28;20913;-74
2023/01/23 10:50:10;;;;;;;7.88;5.03;;;3.70;99.90;;;;;;5006408;28;20541;-74
2023/01/23 10:52:42;;;;;;;5.32;4.35;;;3.70;99.90;;;;;;4991636;28;20948;-74
2023/01/23 10:55:26;;;;;;;5.63;4.32;;;3.80;99.90;;;;;;5008440;28;20423;-74
2023/01/23 10:57:54;;;;;;;7.00;4.85;;;3.80;99.90;;;;;;5009491;28;20550;-75
2023/01/23 11:00:32;;;;;;;6.00;3.92;;;3.90;99.90;;;;;;5009035;28;20407;-75
2023/01/23 11:03:23;;;;;;;5.60;4.32;;;4.40;99.90;;;;;;5003338;28;20440;-75
2023/01/23 11:05:59;;;;;;;5.67;4.50;;;3.90;99.90;;;;;;5006142;28;20412;-75
2023/01/23 11:08:31;;;;;;;5.72;4.60;;;4.10;99.90;;;;;;5006806;28;20532;-75
2023/01/23 11:11:14;;;;;;;5.47;4.25;;;4.20;99.90;;;;;;5005050;28;20440;-75
2023/01/23 11:13:42;;;;;;;2.67;1.88;;;4.20;99.90;;;;;;5005055;28;20428;-75
2023/01/23 11:16:20;;;;;;;2.67;1.63;;;3.90;99.90;;;;;;5004075;28;20492;-74
2023/01/23 11:19:01;;;;;;;2.73;2.07;;;4.00;99.90;;;;;;4987336;28;20539;-75
2023/01/23 11:21:32;;;;;;;4.85;2.42;;;4.20;99.90;;;;;;5003641;28;20440;-75
2023/01/23 11:24:19;;;;;;;5.00;2.70;;;5.80;99.90;;;;;;5005395;28;20424;-74
2023/01/23 11:26:45;;;;;;;4.80;3.08;;;4.20;99.90;;;;;;5005445;28;20428;-75
2023/01/23 11:29:23;;;;;;;2.17;1.50;;;4.20;99.90;;;;;;4992132;28;20409;-74
2023/01/23 11:31:59;;;;;;;3.17;1.50;;;4.30;99.90;;;;;;5022133;28;20780;-75
2023/01/23 11:34:33;;;;;;;1.55;1.15;;;4.30;99.90;;;;;;4992504;28;20535;-74
2023/01/23 11:37:11;;;;;;;2.00;1.80;;;4.60;99.90;;;;;;5009845;28;20937;-75
2023/01/23 11:40:00;;;;;;;2.00;1.48;;;4.10;99.90;;;;;;4976379;28;20908;-75
2023/01/23 11:42:27;;;;;;;1.73;1.63;;;4.20;99.90;;;;;;4995814;28;20432;-75
2023/01/23 11:44:54;;;;;;;3.63;1.93;;;4.30;99.90;;;;;;5009965;28;20526;-75
2023/01/23 11:47:27;;;;;;;3.53;2.45;;;4.30;99.90;;;;;;4991180;28;20432;-75
2023/01/23 11:50:14;;;;;;;3.35;2.47;;;4.30;99.90;;;;;;4990566;28;20455;-75
2023/01/23 11:53:05;;;;;;;2.80;2.60;;;4.40;99.90;;;;;;5003392;28;20456;-75
2023/01/23 11:55:40;;;;;;;3.83;2.72;;;4.20;99.90;;;;;;5007722;28;20534;-76
2023/01/23 11:58:22;;;;;;;4.25;2.60;;;5.20;99.90;;;;;;5009601;28;20431;-75
2023/01/23 12:01:06;;;;;;;3.20;2.78;;;4.90;99.90;;;;;;5007578;28;20530;-75
2023/01/23 12:03:43;;;;;;;4.03;3.22;;;4.20;99.90;;;;;;4989609;28;20437;-75
2023/01/23 12:06:28;;;;;;;3.25;2.95;;;4.00;99.90;;;;;;5007863;28;20533;-77
2023/01/23 12:09:17;;;;;;;3.58;2.63;;;4.00;99.90;;;;;;5009410;28;21642;-75
2023/01/23 12:12:01;;;;;;;3.25;2.95;;;4.10;99.90;;;;;;5005885;28;20471;-76
2023/01/23 12:14:51;;;;;;;2.87;2.57;;;4.10;99.90;;;;;;4989262;28;20429;-75
2023/01/23 12:17:39;;;;;;;4.35;3.30;;;4.20;99.90;;;;;;5000776;28;20443;-75
2023/01/23 12:20:23;;;;;;;3.78;2.30;;;4.00;99.90;;;;;;5008742;28;20420;-75
2023/01/23 12:23:06;;;;;;;2.80;2.30;;;4.10;99.90;;;;;;5007177;28;20478;-74
2023/01/23 12:25:35;;;;;;;3.47;2.63;;;4.10;99.90;;;;;;5007538;28;20432;-74
2023/01/23 12:28:11;;;;;;;3.90;2.78;;;4.10;99.90;;;;;;5005125;28;20428;-75
2023/01/23 12:30:58;;;;;;;2.97;2.50;;;4.60;99.90;;;;;;5006286;28;21006;-75
2023/01/23 12:33:33;;;;;;;3.37;2.80;;;4.20;99.90;;;;;;4990442;28;20506;-74
2023/01/23 12:35:58;;;;;;;3.30;3.00;;;4.20;99.90;;;;;;5007433;28;20982;-78
2023/01/23 12:38:48;;;;;;;3.03;2.70;;;5.10;99.90;;;;;;5006554;28;20456;-82
2023/01/23 12:41:31;;;;;;;4.33;2.70;;;4.00;99.90;;;;;;5006693;28;20443;-78
2023/01/23 12:44:08;;;;;;;2.47;2.28;;;4.20;99.90;;;;;;5007761;28;20424;-78
2023/01/23 12:46:54;;;;;;;4.45;2.55;;;4.10;99.90;;;;;;5003605;28;20449;-79
2023/01/23 12:49:41;;;;;;;4.60;2.35;;;4.10;99.90;;;;;;5006538;28;20460;-79
2023/01/23 12:52:34;;;;;;;2.42;2.03;;;4.40;99.90;;;;;;5006118;28;20527;-79
2023/01/23 12:55:18;;;;;;;2.67;2.10;;;4.40;99.90;;;;;;5006110;28;20453;-75
2023/01/23 12:57:53;;;;;;;4.23;1.80;;;4.10;99.90;;;;;;5006419;28;20511;-75
2023/01/23 13:00:49;;;;;;;2.20;1.60;;;4.10;99.90;;;;;;5005013;28;20436;-75
2023/01/23 13:03:36;;;;;;;2.42;1.92;;;4.10;99.90;;;;;;5007111;28;20425;-75
2023/01/23 13:06:13;;;;;;;2.45;2.25;;;4.10;99.90;;;;;;5006940;28;20437;-76
2023/01/23 13:09:12;;;;;;;2.83;2.20;;;5.10;99.90;;;;;;5007060;28;20424;-75
2023/01/23 13:11:41;;;;;;;2.88;2.67;;;4.20;99.90;;;;;;5006675;28;20472;-74